createdAt,value
2018-07-09T00:01:43.960Z,99.90
2018-07-09T00:04:14.100Z,99.90
2018-07-09T00:06:44.333Z,99.90
2018-07-09T00:09:14.532Z,99.90
2018-07-09T00:11:44.641Z,99.90
2018-07-09T00:14:15.608Z,99.90
2018-07-09T00:16:45.740Z,99.90
2018-07-09T00:19:15.872Z,99.90
2018-07-09T00:21:45.992Z,99.90
2018-07-09T00:24:16.245Z,99.90
2018-07-09T00:26:46.392Z,99.90
2018-07-09T00:29:16.497Z,99.90
2018-07-09T00:31:46.648Z,99.90
2018-07-09T00:34:16.785Z,99.90
2018-07-09T00:36:46.882Z,99.90
2018-07-09T00:39:17.075Z,99.90
2018-07-09T00:41:47.256Z,99.90
2018-07-09T00:44:17.375Z,99.90
2018-07-09T00:46:47.592Z,99.90
2018-07-09T00:49:18.041Z,99.90
2018-07-09T00:51:48.465Z,99.90
2018-07-09T00:54:18.637Z,99.90
2018-07-09T00:56:48.809Z,99.90
2018-07-09T00:59:18.956Z,99.90
2018-07-09T01:01:49.072Z,99.90
2018-07-09T01:04:19.220Z,99.90
2018-07-09T01:06:49.402Z,99.90
2018-07-09T01:09:19.525Z,99.90
2018-07-09T01:11:55.504Z,99.90
2018-07-09T01:14:25.611Z,99.90
2018-07-09T01:16:55.712Z,99.90
2018-07-09T01:19:25.839Z,99.90
2018-07-09T01:21:55.924Z,99.90
2018-07-09T01:24:26.129Z,99.90
2018-07-09T01:26:56.261Z,99.90
2018-07-09T01:29:26.392Z,99.90
2018-07-09T01:31:56.525Z,99.90
2018-07-09T01:34:26.621Z,99.90
2018-07-09T01:36:56.772Z,99.90
2018-07-09T01:39:26.940Z,99.90
2018-07-09T01:41:57.042Z,99.90
2018-07-09T01:44:27.172Z,99.90
2018-07-09T01:46:57.285Z,99.90
2018-07-09T01:49:27.393Z,99.90
2018-07-09T01:51:57.508Z,99.90
2018-07-09T01:54:27.609Z,99.90
2018-07-09T01:59:27.456Z,99.90
2018-07-09T02:01:57.576Z,99.90
2018-07-09T02:04:27.681Z,99.90
2018-07-09T02:06:57.772Z,99.90
2018-07-09T02:09:27.888Z,99.90
2018-07-09T02:11:57.992Z,99.90
2018-07-09T02:14:28.096Z,99.90
2018-07-09T02:16:58.214Z,99.90
2018-07-09T02:19:28.641Z,99.90
2018-07-09T02:21:58.800Z,99.90
2018-07-09T02:24:28.924Z,99.90
2018-07-09T02:26:59.140Z,99.90
2018-07-09T02:29:29.265Z,99.90
2018-07-09T02:31:59.359Z,99.90
2018-07-09T02:34:29.458Z,99.90
2018-07-09T02:36:59.548Z,99.90
2018-07-09T02:39:29.699Z,99.90
2018-07-09T02:41:59.795Z,99.90
2018-07-09T02:44:29.956Z,99.90
2018-07-09T02:47:00.064Z,99.90
2018-07-09T02:49:30.193Z,99.90
2018-07-09T02:52:00.336Z,99.90
2018-07-09T02:54:30.457Z,99.90
2018-07-09T02:57:00.540Z,99.90
2018-07-09T02:59:30.664Z,99.90
2018-07-09T03:02:00.740Z,99.90
2018-07-09T03:04:30.853Z,99.90
2018-07-09T03:07:00.940Z,99.90
2018-07-09T03:09:31.039Z,99.90
2018-07-09T03:12:01.229Z,99.90
2018-07-09T03:14:31.424Z,99.90
2018-07-09T03:17:01.521Z,99.90
2018-07-09T03:19:31.624Z,99.90
2018-07-09T03:22:01.709Z,99.90
2018-07-09T03:24:31.801Z,99.90
2018-07-09T03:27:01.892Z,99.90
2018-07-09T03:29:32.017Z,99.90
2018-07-09T03:32:02.250Z,99.90
2018-07-09T03:34:32.592Z,99.90
2018-07-09T03:37:02.692Z,99.90
2018-07-09T03:39:32.776Z,99.90
2018-07-09T03:42:02.861Z,99.90
2018-07-09T03:44:32.955Z,99.90
2018-07-09T03:47:03.099Z,99.90
2018-07-09T03:49:33.176Z,99.90
2018-07-09T03:52:03.313Z,99.90
2018-07-09T03:54:33.412Z,99.90
2018-07-09T03:57:03.472Z,99.90
2018-07-09T03:59:33.572Z,99.90
2018-07-09T04:02:03.707Z,99.90
2018-07-09T04:04:33.788Z,99.90
2018-07-09T04:07:03.949Z,99.90
2018-07-09T04:09:34.032Z,99.90
2018-07-09T04:12:04.169Z,99.90
2018-07-09T04:14:34.250Z,99.90
2018-07-09T04:17:04.336Z,99.90
2018-07-09T04:19:34.452Z,99.90
2018-07-09T04:22:04.536Z,99.90
2018-07-09T04:24:34.625Z,99.90
2018-07-09T04:27:04.728Z,99.90
2018-07-09T04:29:34.893Z,99.90
2018-07-09T04:32:04.964Z,99.90
2018-07-09T04:34:35.060Z,99.90
2018-07-09T04:37:05.457Z,99.90
2018-07-09T04:39:35.528Z,99.90
2018-07-09T04:42:05.732Z,99.90
2018-07-09T04:44:35.808Z,99.90
2018-07-09T04:47:05.942Z,99.90
2018-07-09T04:49:36.032Z,99.80
2018-07-09T04:52:06.152Z,99.50
2018-07-09T04:54:36.232Z,99.10
2018-07-09T04:57:06.353Z,99.10
2018-07-09T04:59:36.680Z,99.00
2018-07-09T05:02:07.217Z,99.10
2018-07-09T05:04:37.338Z,98.90
2018-07-09T05:07:07.496Z,98.70
2018-07-09T05:09:37.634Z,98.60
2018-07-09T05:12:08.108Z,99.30
2018-07-09T05:14:38.204Z,99.00
2018-07-09T05:17:08.328Z,98.80
2018-07-09T05:19:38.424Z,98.90
2018-07-09T05:22:08.516Z,99.10
2018-07-09T05:24:38.592Z,99.30
2018-07-09T05:27:09.056Z,99.40
2018-07-09T05:29:39.228Z,99.10
2018-07-09T05:32:09.329Z,98.50
2018-07-09T05:34:39.408Z,97.30
2018-07-09T05:37:09.560Z,96.50
2018-07-09T05:42:09.929Z,93.00
2018-07-09T05:44:40.388Z,92.10
2018-07-09T05:47:11.000Z,92.10
2018-07-09T05:49:41.521Z,91.80
2018-07-09T05:52:11.628Z,91.20
2018-07-09T05:54:41.764Z,91.30
2018-07-09T05:57:12.811Z,91.50
2018-07-09T05:59:42.976Z,91.60
2018-07-09T06:02:13.061Z,91.50
2018-07-09T06:04:43.181Z,91.70
2018-07-09T06:07:13.272Z,90.00
2018-07-09T06:09:43.413Z,87.70
2018-07-09T06:12:13.516Z,84.10
2018-07-09T06:14:43.620Z,81.00
2018-07-09T06:17:13.764Z,79.50
2018-07-09T06:19:43.897Z,78.90
2018-07-09T06:22:13.932Z,76.20
2018-07-09T06:24:44.103Z,71.10
2018-07-09T06:27:14.293Z,65.70
2018-07-09T06:29:44.383Z,66.80
2018-07-09T06:34:44.236Z,60.00
2018-07-09T06:37:14.328Z,57.90
2018-07-09T06:39:49.386Z,56.70
2018-07-09T06:42:19.568Z,55.60
2018-07-09T06:44:49.768Z,56.90
2018-07-09T06:47:19.869Z,59.70
2018-07-09T06:49:49.969Z,60.20
2018-07-09T06:52:20.335Z,62.50
2018-07-09T06:54:50.504Z,65.00
2018-07-09T06:57:20.672Z,66.10
2018-07-09T06:59:50.753Z,66.30
2018-07-09T07:02:20.908Z,68.40
2018-07-09T07:04:50.968Z,71.40
2018-07-09T07:07:21.140Z,72.20
2018-07-09T07:09:51.214Z,70.90
2018-07-09T07:12:21.354Z,70.50
2018-07-09T07:14:51.472Z,71.80
2018-07-09T07:17:21.616Z,71.50
2018-07-09T07:19:51.689Z,71.90
2018-07-09T07:22:21.895Z,70.40
2018-07-09T07:24:51.984Z,63.90
2018-07-09T07:27:27.668Z,62.60
2018-07-09T07:29:57.756Z,60.60
2018-07-09T07:32:27.840Z,56.80
2018-07-09T07:34:57.981Z,56.40
2018-07-09T07:37:28.084Z,56.50
2018-07-09T07:39:58.180Z,54.70
2018-07-09T07:42:28.312Z,56.50
2018-07-09T07:44:58.438Z,55.80
2018-07-09T07:47:28.501Z,58.80
2018-07-09T07:49:58.631Z,56.50
2018-07-09T07:52:28.768Z,56.50
2018-07-09T07:54:58.881Z,57.70
2018-07-09T07:57:28.980Z,59.80
2018-07-09T07:59:59.116Z,60.30
2018-07-09T08:02:29.239Z,59.30
2018-07-09T08:04:59.360Z,58.80
2018-07-09T08:07:29.482Z,58.80
2018-07-09T08:09:59.581Z,58.00
2018-07-09T08:13:27.718Z,59.60
2018-07-09T08:14:59.857Z,56.50
2018-07-09T08:17:29.993Z,54.60
2018-07-09T08:20:00.110Z,52.90
2018-07-09T08:22:30.198Z,53.10
2018-07-09T08:25:00.454Z,52.20
2018-07-09T08:27:30.565Z,48.30
2018-07-09T08:30:00.689Z,50.70
2018-07-09T08:32:30.813Z,49.20
2018-07-09T08:35:00.945Z,46.20
2018-07-09T08:37:31.073Z,46.50
2018-07-09T08:40:01.408Z,46.10
2018-07-09T08:42:31.543Z,46.80
2018-07-09T08:45:01.654Z,47.10
2018-07-09T08:47:31.769Z,47.50
2018-07-09T08:50:01.872Z,46.70
2018-07-09T08:52:32.153Z,48.60
2018-07-09T08:55:02.345Z,44.00
2018-07-09T08:57:32.465Z,44.60
2018-07-09T09:00:02.637Z,43.10
2018-07-09T09:02:32.724Z,44.60
2018-07-09T09:05:02.864Z,44.60
2018-07-09T09:07:33.350Z,45.30
2018-07-09T09:10:03.728Z,44.50
2018-07-09T09:12:33.761Z,43.10
2018-07-09T09:15:04.000Z,44.60
2018-07-09T09:17:34.098Z,44.10
2018-07-09T09:20:04.244Z,45.40
2018-07-09T09:22:34.318Z,43.90
2018-07-09T09:25:04.484Z,44.20
2018-07-09T09:27:34.589Z,45.60
2018-07-09T09:30:05.197Z,45.10
2018-07-09T09:32:35.345Z,45.00
2018-07-09T09:35:05.568Z,44.70
2018-07-09T09:37:35.738Z,45.60
2018-07-09T09:40:05.832Z,44.40
2018-07-09T09:42:35.915Z,49.10
2018-07-09T09:45:06.031Z,46.30
2018-07-09T09:47:36.221Z,44.80
2018-07-09T09:50:06.368Z,47.20
2018-07-09T09:52:36.557Z,47.60
2018-07-09T09:55:06.696Z,46.40
2018-07-09T09:57:37.060Z,46.90
2018-07-09T10:00:07.481Z,48.10
2018-07-09T10:02:37.596Z,47.00
2018-07-09T10:05:07.748Z,47.60
2018-07-09T10:07:37.908Z,49.00
2018-07-09T10:10:08.096Z,48.80
2018-07-09T10:12:38.175Z,48.10
2018-07-09T10:15:08.324Z,50.30
2018-07-09T10:17:38.444Z,50.40
2018-07-09T10:20:08.580Z,50.80
2018-07-09T10:22:38.669Z,50.80
2018-07-09T10:25:08.784Z,52.00
2018-07-09T10:27:38.869Z,51.90
2018-07-09T10:30:09.144Z,51.50
2018-07-09T10:32:39.240Z,51.30
2018-07-09T10:35:09.381Z,53.00
2018-07-09T10:37:39.461Z,60.70
2018-07-09T10:40:09.617Z,63.90
2018-07-09T10:42:39.691Z,66.70
2018-07-09T10:45:09.850Z,67.30
2018-07-09T10:47:39.933Z,67.50
2018-07-09T10:50:10.061Z,65.70
2018-07-09T10:52:40.130Z,66.70
2018-07-09T10:55:10.326Z,66.30
2018-07-09T10:57:40.416Z,68.30
2018-07-09T11:00:12.648Z,70.30
2018-07-09T11:02:42.720Z,69.20
2018-07-09T11:05:12.866Z,68.40
2018-07-09T11:07:43.012Z,67.00
2018-07-09T11:10:13.555Z,57.30
2018-07-09T11:12:43.612Z,58.10
2018-07-09T11:15:13.700Z,59.70
2018-07-09T11:17:43.781Z,63.30
2018-07-09T11:20:13.909Z,62.10
2018-07-09T11:22:43.988Z,59.80
2018-07-09T11:25:14.092Z,60.10
2018-07-09T11:27:44.189Z,57.40
2018-07-09T11:30:14.321Z,56.80
2018-07-09T11:32:44.442Z,56.10
2018-07-09T11:35:14.520Z,56.60
2018-07-09T11:40:25.726Z,57.80
2018-07-09T11:42:55.808Z,55.30
2018-07-09T11:45:25.905Z,56.10
2018-07-09T11:47:56.103Z,55.70
2018-07-09T11:50:26.264Z,56.40
2018-07-09T11:52:56.367Z,55.60
2018-07-09T11:55:26.769Z,55.50
2018-07-09T11:57:57.771Z,54.70
2018-07-09T12:00:27.933Z,55.70
2018-07-09T12:02:58.133Z,53.50
2018-07-09T12:05:28.308Z,53.30
2018-07-09T12:07:58.440Z,50.80
2018-07-09T12:10:28.514Z,51.00
2018-07-09T12:12:58.716Z,50.50
2018-07-09T12:15:29.065Z,48.70
2018-07-09T12:17:59.160Z,49.50
2018-07-09T12:20:29.546Z,45.90
2018-07-09T12:22:59.627Z,45.20
2018-07-09T12:25:29.768Z,43.30
2018-07-09T12:27:59.827Z,44.80
2018-07-09T12:30:29.916Z,43.50
2018-07-09T12:33:00.026Z,42.30
2018-07-09T12:35:30.107Z,43.70
2018-07-09T12:38:00.340Z,45.30
2018-07-09T12:40:30.458Z,45.80
2018-07-09T12:43:00.641Z,46.90
2018-07-09T12:45:30.708Z,48.00
2018-07-09T12:48:00.812Z,49.40
2018-07-09T12:50:31.044Z,48.90
2018-07-09T12:53:01.140Z,47.50
2018-07-09T12:55:31.240Z,46.50
2018-07-09T12:58:01.344Z,45.40
2018-07-09T13:00:31.413Z,45.10
2018-07-09T13:03:01.534Z,45.10
2018-07-09T13:05:31.640Z,45.00
2018-07-09T13:08:01.724Z,46.10
2018-07-09T13:10:31.863Z,47.20
2018-07-09T13:13:01.968Z,46.80
2018-07-09T13:18:01.741Z,47.00
2018-07-09T13:20:31.881Z,46.50
2018-07-09T13:23:02.170Z,45.20
2018-07-09T13:25:32.253Z,43.40
2018-07-09T13:28:02.397Z,43.40
2018-07-09T13:30:32.488Z,44.30
2018-07-09T13:33:02.881Z,44.30
2018-07-09T13:35:33.064Z,43.20
2018-07-09T13:38:03.216Z,43.70
2018-07-09T13:40:33.948Z,44.10
2018-07-09T13:43:04.122Z,44.80
2018-07-09T13:45:34.956Z,46.40
2018-07-09T13:48:05.076Z,46.50
2018-07-09T13:50:35.614Z,42.90
2018-07-09T13:53:05.754Z,44.40
2018-07-09T13:55:35.933Z,46.80
2018-07-09T13:58:06.079Z,46.50
2018-07-09T14:00:36.200Z,46.70
2018-07-09T14:03:06.304Z,47.30
2018-07-09T14:05:36.412Z,43.00
2018-07-09T14:08:06.548Z,42.00
2018-07-09T14:10:36.609Z,41.20
2018-07-09T14:13:06.728Z,43.00
2018-07-09T14:15:36.928Z,45.10
2018-07-09T14:18:07.056Z,44.40
2018-07-09T14:20:45.556Z,42.40
2018-07-09T14:23:16.962Z,42.90
2018-07-09T14:25:47.099Z,44.10
2018-07-09T14:28:17.215Z,46.30
2018-07-09T14:30:47.297Z,46.10
2018-07-09T14:33:17.492Z,44.90
2018-07-09T14:35:47.796Z,43.70
2018-07-09T14:38:17.908Z,45.30
2018-07-09T14:40:48.009Z,46.80
2018-07-09T14:43:18.171Z,45.20
2018-07-09T14:45:48.281Z,45.10
2018-07-09T14:48:18.437Z,45.30
2018-07-09T14:50:48.650Z,47.00
2018-07-09T14:53:18.752Z,43.50
2018-07-09T14:55:48.900Z,43.40
2018-07-09T14:58:18.962Z,43.90
2018-07-09T15:00:49.036Z,43.80
2018-07-09T15:03:19.163Z,44.20
2018-07-09T15:05:49.268Z,43.40
2018-07-09T15:08:19.427Z,44.10
2018-07-09T15:10:49.552Z,44.70
2018-07-09T15:13:19.620Z,43.70
2018-07-09T15:15:49.815Z,43.60
2018-07-09T15:18:19.834Z,45.20
2018-07-09T15:20:49.932Z,45.20
2018-07-09T15:23:20.064Z,44.50
2018-07-09T15:25:50.176Z,44.60
2018-07-09T15:28:20.256Z,46.20
2018-07-09T15:30:50.406Z,44.40
2018-07-09T15:33:20.502Z,45.50
2018-07-09T15:35:50.583Z,44.90
2018-07-09T15:38:20.703Z,45.00
2018-07-09T15:40:50.804Z,45.00
2018-07-09T15:43:36.535Z,46.40
2018-07-09T15:46:06.664Z,47.60
2018-07-09T15:48:36.779Z,48.20
2018-07-09T15:51:06.876Z,46.90
2018-07-09T15:53:36.941Z,46.30
2018-07-09T15:56:07.044Z,47.50
2018-07-09T15:58:37.096Z,48.10
2018-07-09T16:01:07.409Z,48.10
2018-07-09T16:03:37.538Z,48.50
2018-07-09T16:06:07.657Z,48.60
2018-07-09T16:08:37.808Z,48.50
2018-07-09T16:11:08.184Z,48.40
2018-07-09T16:13:38.266Z,50.10
2018-07-09T16:16:08.397Z,50.30
2018-07-09T16:21:09.265Z,49.30
2018-07-09T16:23:39.396Z,48.80
2018-07-09T16:26:09.669Z,46.40
2018-07-09T16:28:39.863Z,45.50
2018-07-09T16:31:09.988Z,46.80
2018-07-09T16:33:40.125Z,47.00
2018-07-09T16:36:10.312Z,47.50
2018-07-09T16:38:40.492Z,46.90
2018-07-09T16:41:10.721Z,47.40
2018-07-09T16:43:40.935Z,48.10
2018-07-09T16:46:11.015Z,47.50
2018-07-09T16:48:41.128Z,47.00
2018-07-09T16:51:11.383Z,48.20
2018-07-09T16:53:41.628Z,48.40
2018-07-09T16:56:11.784Z,48.40
2018-07-09T16:58:41.865Z,47.70
2018-07-09T17:01:11.933Z,47.50
2018-07-09T17:03:42.018Z,47.50
2018-07-09T17:06:12.118Z,48.20
2018-07-09T17:08:42.216Z,48.70
2018-07-09T17:11:12.344Z,49.40
2018-07-09T17:13:42.425Z,49.70
2018-07-09T17:16:12.515Z,50.50
2018-07-09T17:18:42.688Z,51.10
2018-07-09T17:21:12.760Z,53.80
2018-07-09T17:23:42.860Z,54.10
2018-07-09T17:26:12.928Z,56.40
2018-07-09T17:28:43.021Z,58.40
2018-07-09T17:31:13.204Z,59.90
2018-07-09T17:33:43.287Z,61.20
2018-07-09T17:36:13.400Z,62.70
2018-07-09T17:38:43.584Z,63.80
2018-07-09T17:41:13.770Z,65.70
2018-07-09T17:43:43.989Z,66.50
2018-07-09T17:46:14.112Z,67.30
2018-07-09T17:48:44.184Z,68.80
2018-07-09T17:51:14.488Z,70.70
2018-07-09T17:53:44.620Z,72.20
2018-07-09T17:56:14.873Z,73.70
2018-07-09T17:58:45.019Z,75.10
2018-07-09T18:01:15.253Z,76.40
2018-07-09T18:03:45.439Z,77.10
2018-07-09T18:06:15.952Z,78.10
2018-07-09T18:08:46.152Z,79.50
2018-07-09T18:11:16.365Z,80.30
2018-07-09T18:13:46.620Z,80.70
2018-07-09T18:16:16.812Z,82.00
2018-07-09T18:18:46.969Z,83.60
2018-07-09T18:21:17.249Z,84.60
2018-07-09T18:23:47.375Z,83.20
2018-07-09T18:26:17.508Z,83.30
2018-07-09T18:28:47.716Z,83.70
2018-07-09T18:31:17.979Z,83.70
2018-07-09T18:33:48.212Z,84.40
2018-07-09T18:36:18.316Z,84.80
2018-07-09T18:38:48.666Z,84.60
2018-07-09T18:41:18.824Z,84.70
2018-07-09T18:43:49.013Z,84.60
2018-07-09T18:46:19.279Z,86.10
2018-07-09T18:48:49.406Z,85.60
2018-07-09T18:51:19.826Z,86.00
2018-07-09T18:53:49.950Z,85.60
2018-07-09T18:56:20.060Z,88.00
2018-07-09T18:58:50.470Z,90.00
2018-07-09T19:01:20.642Z,90.60
2018-07-09T19:03:50.734Z,90.70
2018-07-09T19:06:49.964Z,90.90
2018-07-09T19:09:21.172Z,91.30
2018-07-09T19:11:51.609Z,91.80
2018-07-09T19:14:26.067Z,91.80
2018-07-09T19:17:53.036Z,91.70
2018-07-09T19:20:40.065Z,91.70
2018-07-09T19:23:09.624Z,91.90
2018-07-09T19:25:38.548Z,92.50
2018-07-09T19:28:07.984Z,92.80
2018-07-09T19:30:36.345Z,93.10
2018-07-09T19:33:04.720Z,93.00
2018-07-09T19:35:33.114Z,93.30
2018-07-09T19:38:01.678Z,92.60
2018-07-09T19:40:29.926Z,92.70
2018-07-09T19:42:58.300Z,92.80
2018-07-09T19:45:26.662Z,92.50
2018-07-09T19:47:55.116Z,92.30
2018-07-09T19:50:23.407Z,92.30
2018-07-09T19:52:51.787Z,92.60
2018-07-09T19:57:48.716Z,93.40
2018-07-09T20:02:45.644Z,94.00
2018-07-09T20:05:14.020Z,94.00
2018-07-09T20:07:42.393Z,94.50
2018-07-09T20:10:15.960Z,94.50
2018-07-09T20:12:49.476Z,94.40
2018-07-09T20:15:23.080Z,94.60
2018-07-09T20:17:51.444Z,94.60
2018-07-09T20:20:19.808Z,94.70
2018-07-09T20:22:48.208Z,94.30
2018-07-09T20:25:16.580Z,94.40
2018-07-09T20:27:44.948Z,94.50
2018-07-09T20:30:13.341Z,94.60
2018-07-09T20:32:41.783Z,94.30
2018-07-09T20:35:10.228Z,93.90
2018-07-09T20:37:38.637Z,94.70
2018-07-09T20:40:07.030Z,95.00
2018-07-09T20:42:35.429Z,95.10
2018-07-09T20:45:05.296Z,94.90
2018-07-09T20:47:33.842Z,95.00
2018-07-09T20:50:02.227Z,95.20
2018-07-09T20:52:30.620Z,95.10
2018-07-09T20:54:59.836Z,95.10
2018-07-09T20:57:28.217Z,95.30
2018-07-09T20:59:56.590Z,95.10
2018-07-09T21:02:25.112Z,95.60
2018-07-09T21:04:53.684Z,95.60
2018-07-09T21:07:21.996Z,95.00
2018-07-09T21:09:50.418Z,95.30
2018-07-09T21:12:18.812Z,95.70
2018-07-09T21:14:47.194Z,95.60
2018-07-09T21:17:15.598Z,95.50
2018-07-09T21:19:44.021Z,95.60
2018-07-09T21:24:40.988Z,95.50
2018-07-09T21:27:09.356Z,95.80
2018-07-09T21:29:37.728Z,95.70
2018-07-09T21:32:06.124Z,95.80
2018-07-09T21:34:34.504Z,96.00
2018-07-09T21:37:02.883Z,95.90
2018-07-09T21:39:31.260Z,95.60
2018-07-09T21:41:59.630Z,95.30
2018-07-09T21:44:28.033Z,95.50
2018-07-09T21:46:56.413Z,95.90
2018-07-09T21:49:24.808Z,96.00
2018-07-09T21:51:53.203Z,96.00
2018-07-09T21:54:23.108Z,96.40
2018-07-09T21:56:51.616Z,96.80
2018-07-09T21:59:20.006Z,96.80
2018-07-09T22:01:48.387Z,97.00
2018-07-09T22:04:18.365Z,97.30
2018-07-09T22:06:46.750Z,97.30
2018-07-09T22:09:15.112Z,97.30
2018-07-09T22:11:45.549Z,97.00
2018-07-09T22:14:13.933Z,97.30
2018-07-09T22:16:42.317Z,97.70
2018-07-09T22:19:10.701Z,98.00
2018-07-09T22:21:39.089Z,98.10
2018-07-09T22:24:07.479Z,98.50
2018-07-09T22:26:35.880Z,98.30
2018-07-09T22:29:04.259Z,98.30
2018-07-09T22:31:34.360Z,98.30
2018-07-09T22:34:04.503Z,98.10
2018-07-09T22:36:34.652Z,98.20
2018-07-09T22:39:05.475Z,98.10
2018-07-09T22:41:35.591Z,97.90
2018-07-09T22:44:20.058Z,97.60
2018-07-09T22:46:50.356Z,97.60
2018-07-09T22:49:20.468Z,97.60
2018-07-09T22:51:50.588Z,97.40
2018-07-09T22:54:20.716Z,97.60
2018-07-09T22:59:20.928Z,98.00
2018-07-09T23:01:51.067Z,97.80
2018-07-09T23:04:21.211Z,97.90
2018-07-09T23:06:57.910Z,98.20
2018-07-09T23:11:52.425Z,98.40
2018-07-09T23:15:43.678Z,98.30
2018-07-09T23:19:29.864Z,98.30
2018-07-09T23:22:13.785Z,98.30
2018-07-09T23:24:42.192Z,98.60
2018-07-09T23:27:10.608Z,98.70
2018-07-09T23:29:38.985Z,98.70
2018-07-09T23:32:07.368Z,98.80
2018-07-09T23:34:35.848Z,98.70
2018-07-09T23:37:04.224Z,98.60
2018-07-09T23:39:32.598Z,98.40
2018-07-09T23:42:00.995Z,98.50
2018-07-09T23:44:29.360Z,98.10
2018-07-09T23:46:57.764Z,97.80
2018-07-09T23:49:26.123Z,98.00
2018-07-09T23:51:54.488Z,98.10
2018-07-09T23:54:22.880Z,98.10
2018-07-09T23:59:28.346Z,97.90
